createdAt,value
2017-12-04T00:00:19.296Z,0.10
2017-12-04T00:02:48.142Z,0.20
2017-12-04T00:05:17.254Z,0.20
2017-12-04T00:07:45.584Z,0.10
2017-12-04T00:10:13.925Z,0.20
2017-12-04T00:12:42.274Z,0.20
2017-12-04T00:15:10.622Z,0.20
2017-12-04T00:17:38.935Z,0.20
2017-12-04T00:20:08.065Z,0.20
2017-12-04T00:22:36.697Z,0.20
2017-12-04T00:25:05.029Z,0.20
2017-12-04T00:27:40.824Z,0.20
2017-12-04T00:30:09.137Z,0.20
2017-12-04T00:32:38.258Z,0.20
2017-12-04T00:35:06.607Z,0.20
2017-12-04T00:37:34.966Z,0.20
2017-12-04T00:40:03.276Z,0.30
2017-12-04T00:42:31.634Z,0.30
2017-12-04T00:45:00.722Z,0.30
2017-12-04T00:47:29.067Z,0.30
2017-12-04T00:49:57.386Z,0.30
2017-12-04T00:52:25.724Z,0.30
2017-12-04T00:54:54.071Z,0.30
2017-12-04T00:57:22.406Z,0.40
2017-12-04T00:59:50.725Z,0.30
2017-12-04T01:02:19.073Z,0.30
2017-12-04T01:04:47.403Z,0.30
2017-12-04T01:07:15.732Z,0.30
2017-12-04T01:09:44.823Z,0.30
2017-12-04T01:12:13.157Z,0.30
2017-12-04T01:14:41.505Z,0.30
2017-12-04T01:17:09.879Z,0.40
2017-12-04T01:19:38.944Z,0.40
2017-12-04T01:22:08.080Z,0.40
2017-12-04T01:24:37.151Z,0.30
2017-12-04T01:27:05.470Z,0.30
2017-12-04T01:29:33.834Z,0.40
2017-12-04T01:32:02.155Z,0.40
2017-12-04T01:34:30.500Z,0.40
2017-12-04T01:36:58.814Z,0.40
2017-12-04T01:39:27.180Z,0.50
2017-12-04T01:41:55.498Z,0.50
2017-12-04T01:44:23.852Z,0.50
2017-12-04T01:46:52.174Z,0.50
2017-12-04T01:49:21.283Z,0.50
2017-12-04T01:51:49.636Z,0.50
2017-12-04T01:54:17.965Z,0.50
2017-12-04T01:56:46.320Z,0.50
2017-12-04T01:59:14.665Z,0.50
2017-12-04T02:01:43.009Z,0.50
2017-12-04T02:04:11.340Z,0.60
2017-12-04T02:06:40.457Z,0.50
2017-12-04T02:09:08.809Z,0.50
2017-12-04T02:11:37.929Z,0.60
2017-12-04T02:14:07.004Z,0.60
2017-12-04T02:16:35.344Z,0.60
2017-12-04T02:19:03.664Z,0.60
2017-12-04T02:21:32.773Z,0.50
2017-12-04T02:24:01.861Z,0.60
2017-12-04T02:26:31.995Z,0.60
2017-12-04T02:29:01.080Z,0.60
2017-12-04T02:31:29.461Z,0.50
2017-12-04T02:33:58.551Z,0.60
2017-12-04T02:36:27.689Z,0.60
2017-12-04T02:38:56.034Z,0.50
2017-12-04T02:41:25.125Z,0.60
2017-12-04T02:43:54.240Z,0.60
2017-12-04T02:46:22.575Z,0.60
2017-12-04T02:48:50.934Z,0.60
2017-12-04T02:51:19.261Z,0.60
2017-12-04T02:53:47.618Z,0.60
2017-12-04T02:56:15.956Z,0.60
2017-12-04T02:58:52.377Z,0.70
2017-12-04T03:01:22.306Z,0.70
2017-12-04T03:03:51.469Z,0.70
2017-12-04T03:06:19.793Z,0.60
2017-12-04T03:08:48.177Z,0.70
2017-12-04T03:11:16.510Z,0.70
2017-12-04T03:13:44.854Z,0.60
2017-12-04T03:16:13.168Z,0.60
2017-12-04T03:18:41.543Z,0.70
2017-12-04T03:21:09.946Z,0.70
2017-12-04T03:23:39.098Z,0.70
2017-12-04T03:26:07.433Z,0.70
2017-12-04T03:28:35.789Z,0.70
2017-12-04T03:31:04.939Z,0.70
2017-12-04T03:33:33.296Z,0.70
2017-12-04T03:36:02.464Z,0.70
2017-12-04T03:38:30.801Z,0.70
2017-12-04T03:40:59.143Z,0.80
2017-12-04T03:43:28.261Z,0.70
2017-12-04T03:45:56.611Z,0.70
2017-12-04T03:48:25.722Z,0.80
2017-12-04T03:50:54.800Z,0.80
2017-12-04T03:53:23.160Z,0.80
2017-12-04T03:55:51.518Z,0.80
2017-12-04T03:58:19.868Z,0.80
2017-12-04T04:00:48.198Z,0.70
2017-12-04T04:03:16.585Z,0.80
2017-12-04T04:05:44.902Z,0.80
2017-12-04T04:08:13.254Z,0.80
2017-12-04T04:10:41.572Z,0.80
2017-12-04T04:13:09.929Z,0.80
2017-12-04T04:15:39.021Z,0.90
2017-12-04T04:18:08.134Z,0.80
2017-12-04T04:20:36.447Z,0.80
2017-12-04T04:23:04.803Z,0.80
2017-12-04T04:25:33.129Z,0.80
2017-12-04T04:28:01.488Z,0.80
2017-12-04T04:30:29.830Z,0.90
2017-12-04T04:32:58.181Z,0.90
2017-12-04T04:35:26.501Z,0.80
2017-12-04T04:37:54.828Z,0.80
2017-12-04T04:43:24.581Z,0.90
2017-12-04T04:45:53.678Z,0.90
2017-12-04T04:48:22.789Z,0.90
2017-12-04T04:50:51.101Z,0.90
2017-12-04T04:53:19.467Z,0.90
2017-12-04T04:55:47.789Z,0.90
2017-12-04T04:58:17.049Z,0.90
2017-12-04T05:00:45.386Z,0.80
2017-12-04T05:03:13.736Z,0.80
2017-12-04T05:05:42.062Z,0.80
2017-12-04T05:08:15.748Z,0.80
2017-12-04T05:10:44.837Z,0.80
2017-12-04T05:13:24.347Z,0.90
2017-12-04T05:15:52.666Z,0.80
2017-12-04T05:18:21.029Z,0.90
2017-12-04T05:20:55.695Z,0.90
2017-12-04T05:23:24.046Z,0.90
2017-12-04T05:25:53.141Z,0.90
2017-12-04T05:28:22.246Z,0.90
2017-12-04T05:30:51.324Z,0.90
2017-12-04T05:33:19.668Z,0.90
2017-12-04T05:35:47.986Z,0.90
2017-12-04T05:38:16.330Z,1.00
2017-12-04T05:40:44.658Z,0.90
2017-12-04T05:43:12.996Z,0.90
2017-12-04T05:45:41.317Z,0.90
2017-12-04T05:48:10.444Z,1.00
2017-12-04T05:50:38.756Z,1.00
2017-12-04T05:53:07.094Z,0.90
2017-12-04T05:55:35.409Z,1.00
2017-12-04T05:58:03.737Z,0.90
2017-12-04T06:00:32.076Z,0.90
2017-12-04T06:03:00.428Z,0.90
2017-12-04T06:05:28.757Z,1.00
2017-12-04T06:07:57.884Z,0.90
2017-12-04T06:10:26.205Z,0.90
2017-12-04T06:12:54.563Z,1.00
2017-12-04T06:15:22.886Z,1.00
2017-12-04T06:17:51.969Z,1.00
2017-12-04T06:20:20.318Z,1.00
2017-12-04T06:22:48.636Z,1.00
2017-12-04T06:25:17.771Z,0.90
2017-12-04T06:27:46.097Z,0.90
2017-12-04T06:30:14.451Z,0.90
2017-12-04T06:32:42.777Z,1.00
2017-12-04T06:35:11.900Z,0.90
2017-12-04T06:37:40.212Z,0.90
2017-12-04T06:40:08.576Z,0.90
2017-12-04T06:42:36.930Z,1.00
2017-12-04T06:45:05.269Z,1.00
2017-12-04T06:47:33.592Z,1.00
2017-12-04T06:50:01.939Z,1.00
2017-12-04T06:52:30.276Z,1.10
2017-12-04T06:54:58.625Z,1.00
2017-12-04T06:57:26.928Z,1.00
2017-12-04T06:59:56.102Z,1.00
2017-12-04T07:02:24.457Z,1.00
2017-12-04T07:04:53.548Z,1.10
2017-12-04T07:07:22.697Z,1.10
2017-12-04T07:09:51.037Z,1.00
2017-12-04T07:12:19.397Z,1.00
2017-12-04T07:14:47.717Z,1.00
2017-12-04T07:17:16.081Z,1.10
2017-12-04T07:19:44.420Z,1.10
2017-12-04T07:22:12.804Z,1.20
2017-12-04T07:24:41.126Z,1.20
2017-12-04T07:27:09.493Z,1.20
2017-12-04T07:29:37.915Z,1.20
2017-12-04T07:32:06.281Z,1.20
2017-12-04T07:34:34.674Z,1.20
2017-12-04T07:37:03.055Z,1.10
2017-12-04T07:39:32.268Z,1.20
2017-12-04T07:42:00.619Z,1.20
2017-12-04T07:44:28.983Z,1.20
2017-12-04T07:46:57.324Z,1.20
2017-12-04T07:49:26.454Z,1.20
2017-12-04T07:51:54.811Z,1.10
2017-12-04T07:54:23.931Z,1.10
2017-12-04T07:56:52.267Z,1.10
2017-12-04T07:59:20.642Z,1.10
2017-12-04T08:01:48.975Z,1.10
2017-12-04T08:04:17.331Z,1.20
2017-12-04T08:06:46.444Z,1.20
2017-12-04T08:09:14.837Z,1.20
2017-12-04T08:11:43.233Z,1.20
2017-12-04T08:14:11.586Z,1.20
2017-12-04T08:16:39.934Z,1.20
2017-12-04T08:19:08.327Z,1.20
2017-12-04T08:21:37.440Z,1.20
2017-12-04T08:24:05.829Z,1.20
2017-12-04T08:26:34.202Z,1.20
2017-12-04T08:29:02.594Z,1.20
2017-12-04T08:31:30.971Z,1.20
2017-12-04T08:33:59.368Z,1.20
2017-12-04T08:36:27.721Z,1.30
2017-12-04T08:38:56.111Z,1.30
2017-12-04T08:41:24.473Z,1.30
2017-12-04T08:43:52.890Z,1.30
2017-12-04T08:46:21.256Z,1.30
2017-12-04T08:48:50.376Z,1.30
2017-12-04T08:51:20.157Z,1.40
2017-12-04T08:53:48.603Z,1.40
2017-12-04T08:56:18.406Z,1.30
2017-12-04T08:58:46.794Z,1.30
2017-12-04T09:01:15.982Z,1.40
2017-12-04T09:03:44.439Z,1.40
2017-12-04T09:06:13.003Z,1.40
2017-12-04T09:08:42.812Z,1.40
2017-12-04T09:11:11.372Z,1.40
2017-12-04T09:13:39.840Z,1.40
2017-12-04T09:16:15.728Z,1.50
2017-12-04T09:18:44.244Z,1.50
2017-12-04T09:21:13.577Z,1.50
2017-12-04T09:23:48.409Z,1.50
2017-12-04T09:26:19.033Z,1.50
2017-12-04T09:28:47.517Z,1.60
2017-12-04T09:31:15.944Z,1.60
2017-12-04T09:33:44.322Z,1.60
2017-12-04T09:36:12.715Z,1.60
2017-12-04T09:38:41.135Z,1.60
2017-12-04T09:41:10.276Z,1.60
2017-12-04T09:43:38.611Z,1.60
2017-12-04T09:46:06.973Z,1.60
2017-12-04T09:48:35.385Z,1.60
2017-12-04T09:51:04.534Z,1.70
2017-12-04T09:53:33.779Z,1.70
2017-12-04T09:56:02.127Z,1.70
2017-12-04T09:58:30.473Z,1.70
2017-12-04T10:00:58.861Z,1.70
2017-12-04T10:03:27.216Z,1.70
2017-12-04T10:05:56.338Z,1.70
2017-12-04T10:08:24.679Z,1.70
2017-12-04T10:10:53.814Z,1.70
2017-12-04T10:13:22.176Z,1.60
2017-12-04T10:15:50.544Z,1.70
2017-12-04T10:18:18.876Z,1.70
2017-12-04T10:20:47.241Z,1.70
2017-12-04T10:23:15.583Z,1.70
2017-12-04T10:25:44.011Z,1.80
2017-12-04T10:28:12.354Z,1.80
2017-12-04T10:30:40.697Z,1.80
2017-12-04T10:33:09.024Z,1.90
2017-12-04T10:35:37.404Z,1.80
2017-12-04T10:38:05.721Z,1.90
2017-12-04T10:40:34.096Z,1.90
2017-12-04T10:43:04.055Z,1.90
2017-12-04T10:45:32.400Z,1.90
2017-12-04T10:48:00.776Z,1.90
2017-12-04T10:50:29.101Z,1.90
2017-12-04T10:52:58.257Z,1.90
2017-12-04T10:55:29.626Z,1.90
2017-12-04T10:57:57.998Z,1.90
2017-12-04T11:00:26.307Z,2.00
2017-12-04T11:02:54.653Z,1.90
2017-12-04T11:05:23.750Z,1.90
2017-12-04T11:07:52.090Z,1.90
2017-12-04T11:10:20.401Z,1.90
2017-12-04T11:12:48.737Z,1.90
2017-12-04T11:15:17.063Z,2.00
2017-12-04T11:17:45.393Z,2.00
2017-12-04T11:20:13.738Z,2.00
2017-12-04T11:22:42.838Z,2.00
2017-12-04T11:25:11.932Z,2.00
2017-12-04T11:27:41.040Z,2.10
2017-12-04T11:30:12.874Z,2.00
2017-12-04T11:32:42.007Z,2.00
2017-12-04T11:35:11.173Z,2.00
2017-12-04T11:37:40.265Z,2.00
2017-12-04T11:40:09.390Z,2.10
2017-12-04T11:42:37.718Z,2.00
2017-12-04T11:45:06.057Z,2.10
2017-12-04T11:47:34.411Z,2.10
2017-12-04T11:50:03.532Z,2.20
2017-12-04T11:52:31.866Z,2.20
2017-12-04T11:55:00.228Z,2.20
2017-12-04T11:57:28.559Z,2.20
2017-12-04T11:59:56.907Z,2.20
2017-12-04T12:02:25.319Z,2.20
2017-12-04T12:04:53.652Z,2.20
2017-12-04T12:07:21.969Z,2.20
2017-12-04T12:09:50.336Z,2.20
2017-12-04T12:12:19.431Z,2.10
2017-12-04T12:14:48.552Z,2.10
2017-12-04T12:17:16.898Z,2.10
2017-12-04T12:19:45.248Z,2.20
2017-12-04T12:22:13.577Z,2.10
2017-12-04T12:24:42.654Z,2.10
2017-12-04T12:27:11.002Z,2.10
2017-12-04T12:29:39.326Z,2.10
2017-12-04T12:32:08.442Z,2.20
2017-12-04T12:34:36.759Z,2.20
2017-12-04T12:37:05.107Z,2.20
2017-12-04T12:39:33.434Z,2.20
2017-12-04T12:42:01.810Z,2.30
2017-12-04T12:44:30.169Z,2.30
2017-12-04T12:46:58.540Z,2.30
2017-12-04T12:49:26.873Z,2.30
2017-12-04T12:51:56.001Z,2.40
2017-12-04T12:54:24.334Z,2.40
2017-12-04T12:56:52.691Z,2.40
2017-12-04T12:59:21.017Z,2.50
2017-12-04T13:01:50.115Z,2.40
2017-12-04T13:04:18.438Z,2.40
2017-12-04T13:06:46.798Z,2.40
2017-12-04T13:09:15.113Z,2.50
2017-12-04T13:11:43.457Z,2.40
2017-12-04T13:14:11.781Z,2.40
2017-12-04T13:16:40.947Z,2.40
2017-12-04T13:19:09.298Z,2.40
2017-12-04T13:21:37.647Z,2.40
2017-12-04T13:24:06.744Z,2.40
2017-12-04T13:26:35.851Z,2.50
2017-12-04T13:29:04.935Z,2.50
2017-12-04T13:31:34.058Z,2.50
2017-12-04T13:37:26.754Z,2.50
2017-12-04T13:39:55.089Z,2.50
2017-12-04T13:42:24.207Z,2.60
2017-12-04T13:44:52.549Z,2.50
2017-12-04T13:47:20.886Z,2.50
2017-12-04T13:49:49.198Z,2.50
2017-12-04T13:52:17.537Z,2.50
2017-12-04T13:54:45.909Z,2.50
2017-12-04T13:57:14.262Z,2.50
2017-12-04T13:59:43.358Z,2.50
2017-12-04T14:02:11.722Z,2.50
2017-12-04T14:04:40.068Z,2.50
2017-12-04T14:07:08.451Z,2.50
2017-12-04T14:09:36.802Z,2.50
2017-12-04T14:12:05.175Z,2.60
2017-12-04T14:14:33.532Z,2.60
2017-12-04T14:17:02.629Z,2.60
2017-12-04T14:19:31.751Z,2.70
2017-12-04T14:22:00.086Z,2.60
2017-12-04T14:24:28.507Z,2.70
2017-12-04T14:26:56.869Z,2.70
2017-12-04T14:29:26.002Z,2.70
2017-12-04T14:31:55.219Z,2.70
2017-12-04T14:34:23.603Z,2.70
2017-12-04T14:36:51.936Z,2.70
2017-12-04T14:39:20.297Z,2.80
2017-12-04T14:41:49.412Z,2.70
2017-12-04T14:44:17.782Z,2.70
2017-12-04T14:46:46.134Z,2.70
2017-12-04T14:49:14.521Z,2.70
2017-12-04T14:51:42.888Z,2.80
2017-12-04T14:54:11.288Z,2.80
2017-12-04T14:56:40.458Z,2.70
2017-12-04T14:59:08.876Z,2.70
2017-12-04T15:01:37.240Z,2.70
2017-12-04T15:04:05.681Z,2.80
2017-12-04T15:06:34.006Z,2.80
2017-12-04T15:09:02.394Z,2.80
2017-12-04T15:11:30.750Z,2.80
2017-12-04T15:17:18.054Z,2.80
2017-12-04T15:19:46.425Z,2.80
2017-12-04T15:22:14.775Z,2.80
2017-12-04T15:24:43.126Z,2.80
2017-12-04T15:27:11.504Z,2.80
2017-12-04T15:29:39.832Z,2.80
2017-12-04T15:32:08.189Z,2.80
2017-12-04T15:34:36.545Z,2.80
2017-12-04T15:37:04.936Z,2.90
2017-12-04T15:39:34.038Z,2.90
2017-12-04T15:42:02.429Z,2.90
2017-12-04T15:44:31.510Z,2.80
2017-12-04T15:46:59.889Z,2.80
2017-12-04T15:49:28.225Z,2.90
2017-12-04T15:51:56.592Z,2.90
2017-12-04T15:54:24.934Z,2.80
2017-12-04T15:56:53.294Z,2.90
2017-12-04T15:59:22.409Z,2.90
2017-12-04T16:01:50.781Z,2.90
2017-12-04T16:04:19.903Z,2.90
2017-12-04T16:06:48.269Z,2.90
2017-12-04T16:09:16.612Z,2.90
2017-12-04T16:11:44.951Z,2.90
2017-12-04T16:14:13.282Z,2.90
2017-12-04T16:16:41.639Z,2.90
2017-12-04T16:19:09.974Z,2.90
2017-12-04T16:21:38.339Z,2.90
2017-12-04T16:24:07.452Z,3.00
2017-12-04T16:26:35.827Z,2.90
2017-12-04T16:29:04.948Z,3.00
2017-12-04T16:31:33.276Z,3.00
2017-12-04T16:34:02.411Z,3.00
2017-12-04T16:36:30.759Z,3.00
2017-12-04T16:38:59.886Z,3.00
2017-12-04T16:41:28.253Z,3.00
2017-12-04T16:43:57.462Z,3.00
2017-12-04T16:46:25.813Z,3.00
2017-12-04T16:48:54.943Z,3.00
2017-12-04T16:51:23.266Z,3.00
2017-12-04T16:53:51.611Z,3.00
2017-12-04T16:56:19.945Z,3.00
2017-12-04T16:58:48.335Z,3.00
2017-12-04T17:01:17.473Z,3.10
2017-12-04T17:03:45.844Z,3.00
2017-12-04T17:06:14.187Z,3.10
2017-12-04T17:08:43.308Z,3.10
2017-12-04T17:11:11.634Z,3.10
2017-12-04T17:13:39.990Z,3.10
2017-12-04T17:16:08.317Z,3.10
2017-12-04T17:18:37.452Z,3.10
2017-12-04T17:21:06.625Z,3.10
2017-12-04T17:23:34.984Z,3.10
2017-12-04T17:26:03.332Z,3.10
2017-12-04T17:28:31.699Z,3.10
2017-12-04T17:31:00.042Z,3.20
2017-12-04T17:33:28.403Z,3.10
2017-12-04T17:35:57.510Z,3.20
2017-12-04T17:38:25.916Z,3.20
2017-12-04T17:40:54.276Z,3.20
2017-12-04T17:43:23.375Z,3.30
2017-12-04T17:45:51.741Z,3.20
2017-12-04T17:48:20.845Z,3.20
2017-12-04T17:50:49.970Z,3.20
2017-12-04T17:53:18.313Z,3.20
2017-12-04T17:55:47.437Z,3.30
2017-12-04T17:58:15.772Z,3.20
2017-12-04T18:00:44.126Z,3.20
2017-12-04T18:03:12.467Z,3.20
2017-12-04T18:05:40.835Z,3.20
2017-12-04T18:08:10.040Z,3.20
2017-12-04T18:10:38.418Z,3.20
2017-12-04T18:13:06.750Z,3.20
2017-12-04T18:15:35.211Z,3.20
2017-12-04T18:18:03.546Z,3.20
2017-12-04T18:20:32.662Z,3.20
2017-12-04T18:23:01.005Z,3.20
2017-12-04T18:25:30.154Z,3.20
2017-12-04T18:27:58.507Z,3.20
2017-12-04T18:30:26.913Z,3.30
2017-12-04T18:32:55.404Z,3.30
2017-12-04T18:35:23.773Z,3.30
2017-12-04T18:37:52.147Z,3.30
2017-12-04T18:40:20.495Z,3.30
2017-12-04T18:42:48.892Z,3.30
2017-12-04T18:45:17.245Z,3.30
2017-12-04T18:47:45.598Z,3.30
2017-12-04T18:50:13.946Z,3.30
2017-12-04T18:52:42.316Z,3.20
2017-12-04T18:55:10.658Z,3.30
2017-12-04T18:57:39.810Z,3.30
2017-12-04T19:00:08.169Z,3.30
2017-12-04T19:02:36.537Z,3.40
2017-12-04T19:05:04.911Z,3.30
2017-12-04T19:07:34.055Z,3.30
2017-12-04T19:10:02.409Z,3.30
2017-12-04T19:12:30.761Z,3.30
2017-12-04T19:14:59.932Z,3.40
2017-12-04T19:17:28.380Z,3.30
2017-12-04T19:19:56.755Z,3.30
2017-12-04T19:22:25.098Z,3.40
2017-12-04T19:24:53.464Z,3.40
2017-12-04T19:27:21.836Z,3.40
2017-12-04T19:29:50.201Z,3.40
2017-12-04T19:32:18.607Z,3.40
2017-12-04T19:34:46.961Z,3.40
2017-12-04T19:37:15.294Z,3.40
2017-12-04T19:39:43.738Z,3.40
2017-12-04T19:42:12.063Z,3.40
2017-12-04T19:44:40.425Z,3.40
2017-12-04T19:47:08.828Z,3.40
2017-12-04T19:49:37.215Z,3.40
2017-12-04T19:52:05.563Z,3.40
2017-12-04T19:54:33.948Z,3.40
2017-12-04T19:57:02.296Z,3.40
2017-12-04T19:59:31.417Z,3.40
2017-12-04T20:01:59.773Z,3.40
2017-12-04T20:04:28.971Z,3.40
2017-12-04T20:06:58.094Z,3.40
2017-12-04T20:09:27.249Z,3.40
2017-12-04T20:11:55.605Z,3.30
2017-12-04T20:14:23.968Z,3.40
2017-12-04T20:16:52.323Z,3.40
2017-12-04T20:19:21.465Z,3.40
2017-12-04T20:21:49.826Z,3.40
2017-12-04T20:24:18.230Z,3.40
2017-12-04T20:26:46.620Z,3.40
2017-12-04T20:29:14.967Z,3.30
2017-12-04T20:31:43.350Z,3.30
2017-12-04T20:34:11.679Z,3.30
2017-12-04T20:36:40.031Z,3.30
2017-12-04T20:39:08.433Z,3.30
2017-12-04T20:41:36.806Z,3.30
2017-12-04T20:44:05.137Z,3.30
2017-12-04T20:46:33.577Z,3.30
2017-12-04T20:49:02.697Z,3.20
2017-12-04T20:51:31.052Z,3.20
2017-12-04T20:53:59.397Z,3.20
2017-12-04T20:56:27.737Z,3.20
2017-12-04T20:58:56.118Z,3.10
2017-12-04T21:01:24.466Z,3.10
2017-12-04T21:03:52.829Z,3.10
2017-12-04T21:06:21.182Z,3.10
2017-12-04T21:09:01.449Z,3.10
2017-12-04T21:11:41.666Z,3.10
2017-12-04T21:17:21.618Z,3.10
2017-12-04T21:19:49.991Z,3.00
2017-12-04T21:22:18.393Z,3.00
2017-12-04T21:24:46.752Z,2.90
2017-12-04T21:27:15.187Z,3.00
2017-12-04T21:29:43.561Z,3.00
2017-12-04T21:32:11.908Z,3.10
2017-12-04T21:34:41.053Z,3.20
2017-12-04T21:37:09.390Z,3.20
2017-12-04T21:39:37.786Z,3.20
2017-12-04T21:42:06.212Z,3.20
2017-12-04T21:44:34.582Z,3.20
2017-12-04T21:47:03.090Z,3.20
2017-12-04T21:49:31.478Z,3.20
2017-12-04T21:51:59.847Z,3.20
2017-12-04T21:54:28.206Z,3.20
2017-12-04T21:56:56.544Z,3.30
2017-12-04T21:59:24.909Z,3.30
2017-12-04T22:01:54.009Z,3.40
2017-12-04T22:04:23.123Z,3.40
2017-12-04T22:06:51.478Z,3.30
2017-12-04T22:09:20.621Z,3.40
2017-12-04T22:11:49.014Z,3.40
2017-12-04T22:14:17.469Z,3.40
2017-12-04T22:16:45.802Z,3.40
2017-12-04T22:19:14.141Z,3.40
2017-12-04T22:21:43.421Z,3.40
2017-12-04T22:24:11.763Z,3.40
2017-12-04T22:26:40.127Z,3.50
2017-12-04T22:29:09.298Z,3.50
2017-12-04T22:31:37.705Z,3.50
2017-12-04T22:34:06.828Z,3.50
2017-12-04T22:36:35.992Z,3.50
2017-12-04T22:39:04.350Z,3.50
2017-12-04T22:41:32.723Z,3.50
2017-12-04T22:44:01.080Z,3.50
2017-12-04T22:46:29.456Z,3.50
2017-12-04T22:48:57.802Z,3.50
2017-12-04T22:51:26.176Z,3.50
2017-12-04T22:53:54.535Z,3.60
2017-12-04T22:56:22.944Z,3.50
2017-12-04T22:58:51.283Z,3.60
2017-12-04T23:01:19.657Z,3.50
2017-12-04T23:03:48.044Z,3.60
2017-12-04T23:06:16.397Z,3.60
2017-12-04T23:08:44.746Z,3.60
2017-12-04T23:11:13.118Z,3.60
2017-12-04T23:13:41.479Z,3.60
2017-12-04T23:16:09.886Z,3.60
2017-12-04T23:18:39.013Z,3.60
2017-12-04T23:21:07.383Z,3.60
2017-12-04T23:23:36.511Z,3.60
2017-12-04T23:26:04.905Z,3.60
2017-12-04T23:28:33.334Z,3.70
2017-12-04T23:31:02.742Z,3.70
2017-12-04T23:33:31.854Z,3.60
2017-12-04T23:36:00.215Z,3.60
2017-12-04T23:38:28.602Z,3.70
2017-12-04T23:40:57.696Z,3.70
2017-12-04T23:43:26.807Z,3.70
2017-12-04T23:45:55.147Z,3.70
2017-12-04T23:48:23.506Z,3.70
2017-12-04T23:50:51.833Z,3.60
2017-12-04T23:53:21.213Z,3.70
2017-12-04T23:55:49.546Z,3.70
2017-12-04T23:58:17.901Z,3.60
